Time;durP1;ratioP1;P1;durP2;ratioP2;P2;SDS_P1;SDS_P2;PMS_P1;PMS_P2;Temp;Humidity;BMP_temperature;BMP_pressure;BME280_temperature;BME280_humidity;BME280_pressure;Samples;Min_cycle;Max_cycle;Signal;HPM_P1;HPM_P2
2021/11/04 00:00:00;;;;;;;941.85;877.15;;;;;;;9.35;66.86;99834.56;688748;28;46334;-66
2021/11/04 00:00:25;;;;;;;938.10;873.50;;;;;;;9.36;67.05;99838.94;689626;28;21444;-66
2021/11/04 00:00:47;;;;;;;939.03;874.45;;;;;;;9.38;67.09;99830.69;687484;28;92388;-67
2021/11/04 00:01:08;;;;;;;950.70;885.75;;;;;;;9.38;66.92;99827.97;686746;28;46294;-67
2021/11/04 00:01:29;;;;;;;942.92;878.22;;;;;;;9.38;66.78;99831.50;685551;28;21830;-67
2021/11/04 00:01:51;;;;;;;941.30;876.63;;;;;;;9.38;66.70;99828.81;685719;28;23425;-67
2021/11/04 00:02:14;;;;;;;946.53;881.65;;;;;;;9.42;66.87;99825.72;684455;28;67460;-67
2021/11/04 00:02:35;;;;;;;952.92;887.72;;;;;;;9.42;66.92;99829.28;685179;28;47826;-67
2021/11/04 00:02:57;;;;;;;965.17;899.67;;;;;;;9.42;66.72;99826.59;686073;28;45212;-67
2021/11/04 00:03:19;;;;;;;945.33;880.47;;;;;;;9.42;66.51;99825.72;689804;28;45244;-67
2021/11/04 00:03:41;;;;;;;951.60;886.53;;;;;;;9.43;66.70;99833.63;687399;28;46299;-67
2021/11/04 00:04:03;;;;;;;949.55;884.63;;;;;;;9.43;66.61;99824.72;688227;28;22409;-67
2021/11/04 00:04:25;;;;;;;950.63;885.60;;;;;;;9.38;66.52;99818.03;686615;28;69094;-67
2021/11/04 00:04:47;;;;;;;960.42;895.03;;;;;;;9.40;66.42;99822.41;687566;28;44153;-66
2021/11/04 00:05:09;;;;;;;945.17;880.28;;;;;;;9.40;66.46;99823.22;687193;28;44380;-67
2021/11/04 00:05:31;;;;;;;947.13;882.20;;;;;;;9.40;66.42;99825.09;687484;28;45263;-67
2021/11/04 00:05:53;;;;;;;947.60;882.60;;;;;;;9.40;66.38;99827.78;689557;28;21457;-67
2021/11/04 00:06:14;;;;;;;955.15;890.05;;;;;;;9.38;66.64;99822.59;688829;28;45182;-67
2021/11/04 00:06:35;;;;;;;954.05;888.90;;;;;;;9.38;66.73;99823.41;689713;28;23462;-67
2021/11/04 00:06:56;;;;;;;955.30;890.20;;;;;;;9.38;66.50;99820.72;689919;28;22403;-67
2021/11/04 00:07:18;;;;;;;960.47;895.17;;;;;;;9.40;66.47;99817.00;688316;28;46320;-66
2021/11/04 00:07:40;;;;;;;960.63;895.22;;;;;;;9.40;66.87;99819.69;688359;28;44370;-67
2021/11/04 00:08:03;;;;;;;959.03;893.60;;;;;;;9.42;66.55;99828.41;690088;28;22430;-67
2021/11/04 00:08:25;;;;;;;938.28;873.75;;;;;;;9.40;66.58;99820.53;686911;28;92255;-67
2021/11/04 00:08:46;;;;;;;952.85;887.83;;;;;;;9.42;66.76;99817.63;689265;28;46297;-67
2021/11/04 00:09:08;;;;;;;950.45;885.42;;;;;;;9.41;66.67;99816.81;689828;28;22401;-67
2021/11/04 00:09:29;;;;;;;955.65;890.42;;;;;;;9.40;66.77;99814.31;689753;28;22544;-66
2021/11/04 00:09:51;;;;;;;968.97;903.33;;;;;;;9.37;66.49;99812.81;689918;28;21582;-67
2021/11/04 00:10:12;;;;;;;995.85;929.25;;;;;;;9.36;66.74;99820.09;688878;28;46409;-67
2021/11/04 00:10:34;;;;;;;1007.75;940.70;;;;;;;9.37;66.72;99815.53;689677;28;21539;-66
2021/11/04 00:10:55;;;;;;;987.53;921.15;;;;;;;9.35;66.72;99813.00;688857;28;45222;-66
2021/11/04 00:11:16;;;;;;;974.78;908.92;;;;;;;9.34;66.90;99814.06;688937;28;21539;-66
2021/11/04 00:11:38;;;;;;;973.22;907.45;;;;;;;9.33;66.63;99814.25;688806;28;21993;-66
2021/11/04 00:11:59;;;;;;;958.03;892.70;;;;;;;9.32;66.72;99808.00;687200;28;46329;-66
2021/11/04 00:12:21;;;;;;;955.50;890.30;;;;;;;9.32;66.80;99812.56;688779;28;1429;-67
2021/11/04 00:12:50;;;;;;;966.70;901.08;;;;;;;9.32;66.70;99809.88;686325;28;82939;-67
2021/11/04 00:13:11;;;;;;;995.75;929.08;;;;;;;9.31;66.73;99810.91;685828;28;67524;-67
2021/11/04 00:13:33;;;;;;;1002.42;935.50;;;;;;;9.30;66.82;99809.25;690112;28;22228;-67
2021/11/04 00:13:54;;;;;;;1011.55;944.33;;;;;;;9.31;66.81;99800.13;689373;28;20944;-67
2021/11/04 00:14:16;;;;;;;1010.53;943.50;;;;;;;9.31;67.03;99808.19;689266;28;22414;-67
2021/11/04 00:14:37;;;;;;;1006.15;939.28;;;;;;;9.30;66.87;99804.69;688924;28;44369;-67
2021/11/04 00:14:58;;;;;;;1005.97;939.13;;;;;;;9.30;66.84;99802.00;688606;28;44192;-67
2021/11/04 00:15:20;;;;;;;1005.13;938.25;;;;;;;9.31;66.85;99802.81;689093;28;23422;-67
2021/11/04 00:15:42;;;;;;;1004.92;938.05;;;;;;;9.29;66.87;99796.78;687764;28;44001;-67
2021/11/04 00:16:04;;;;;;;1001.30;934.60;;;;;;;9.29;67.16;99802.19;688612;28;22393;-67
2021/11/04 00:16:26;;;;;;;1007.13;940.13;;;;;;;9.27;66.89;99798.84;690041;28;881;-67
2021/11/04 00:16:49;;;;;;;1003.75;936.85;;;;;;;9.25;67.03;99792.78;688155;28;67771;-67
2021/11/04 00:17:12;;;;;;;1001.25;934.38;;;;;;;9.27;67.02;99798.84;687350;28;46254;-67
2021/11/04 00:17:33;;;;;;;1012.67;945.38;;;;;;;9.28;67.02;99800.50;687634;28;46155;-67
2021/11/04 00:17:56;;;;;;;1014.00;946.63;;;;;;;9.28;66.92;99790.56;688764;28;21546;-67
2021/11/04 00:18:17;;;;;;;1011.30;944.05;;;;;;;9.28;66.96;99798.66;687704;28;67486;-67
2021/11/04 00:18:38;;;;;;;1017.85;950.38;;;;;;;9.27;66.97;99796.97;689782;28;21542;-67
2021/11/04 00:18:59;;;;;;;1016.65;949.20;;;;;;;9.26;66.93;99803.38;688290;28;46316;-67
2021/11/04 00:19:21;;;;;;;1007.53;940.42;;;;;;;9.27;66.98;99798.84;688813;28;22390;-67
2021/11/04 00:19:42;;;;;;;1009.95;942.80;;;;;;;9.27;67.31;99799.69;689290;28;22406;-67
2021/11/04 00:20:05;;;;;;;997.08;930.42;;;;;;;9.27;67.32;99798.84;688432;28;45243;-67
2021/11/04 00:20:27;;;;;;;993.10;926.63;;;;;;;9.28;67.25;99797.81;687584;28;68550;-67
2021/11/04 00:20:49;;;;;;;1007.05;940.15;;;;;;;9.28;66.98;99792.41;689470;28;23514;-67
2021/11/04 00:21:10;;;;;;;1008.28;941.15;;;;;;;9.29;67.08;99797.63;687547;28;45211;-67
2021/11/04 00:21:31;;;;;;;1016.17;948.70;;;;;;;9.30;66.95;99798.47;688867;28;46278;-67
2021/11/04 00:21:52;;;;;;;1013.53;946.17;;;;;;;9.30;67.13;99793.91;690008;28;23428;-67
2021/11/04 00:22:14;;;;;;;1016.38;948.97;;;;;;;9.30;66.89;99793.91;690011;28;22418;-67
2021/11/04 00:22:35;;;;;;;1018.70;951.17;;;;;;;9.29;67.25;99786.84;688433;28;44355;-67
2021/11/04 00:22:57;;;;;;;1021.08;953.53;;;;;;;9.31;67.31;99792.03;689375;28;23319;-67
2021/11/04 00:23:19;;;;;;;1006.85;939.80;;;;;;;9.29;67.27;99791.41;688306;28;21646;-67
2021/11/04 00:23:40;;;;;;;1014.30;946.97;;;;;;;9.30;67.29;99790.38;688321;28;22445;-67
2021/11/04 00:24:01;;;;;;;1009.92;942.78;;;;;;;9.25;66.96;99779.31;687124;28;23106;-67
2021/11/04 00:24:22;;;;;;;1013.92;946.63;;;;;;;9.28;67.08;99793.28;688716;28;23494;-67
2021/11/04 00:24:44;;;;;;;1015.05;947.78;;;;;;;9.28;67.28;99787.03;688368;28;23470;-67
2021/11/04 00:25:06;;;;;;;1012.95;945.75;;;;;;;9.28;66.98;99792.41;687619;28;45264;-67
2021/11/04 00:25:27;;;;;;;1004.97;938.08;;;;;;;9.28;66.96;99789.72;690559;28;45285;-67
2021/11/04 00:25:48;;;;;;;1014.00;946.70;;;;;;;9.27;67.24;99793.47;689929;28;23411;-67
2021/11/04 00:26:10;;;;;;;1015.97;948.67;;;;;;;9.27;67.22;99788.91;689543;28;23638;-67
2021/11/04 00:26:31;;;;;;;1015.78;948.38;;;;;;;9.27;67.03;99794.28;688509;28;69190;-67
2021/11/04 00:26:53;;;;;;;1012.47;945.17;;;;;;;9.26;67.34;99798.00;689213;28;23681;-67
2021/11/04 00:27:14;;;;;;;1003.60;936.67;;;;;;;9.25;67.05;99790.09;689840;28;23424;-67
2021/11/04 00:27:37;;;;;;;1005.47;938.45;;;;;;;9.24;67.35;99789.28;689632;28;25003;-67
2021/11/04 00:27:58;;;;;;;1013.40;945.95;;;;;;;9.22;67.09;99794.03;687918;28;68045;-67
2021/11/04 00:28:19;;;;;;;1017.58;950.17;;;;;;;9.23;67.14;99801.06;689848;28;22448;-67
2021/11/04 00:28:40;;;;;;;1012.90;945.63;;;;;;;9.22;67.44;99791.34;689629;28;23543;-67
2021/11/04 00:29:02;;;;;;;1015.38;948.05;;;;;;;9.21;67.43;99789.66;689763;28;22558;-67
2021/11/04 00:29:23;;;;;;;1013.00;945.75;;;;;;;9.21;67.30;99792.34;689179;28;46461;-67
2021/11/04 00:29:44;;;;;;;1014.38;947.08;;;;;;;9.21;67.28;99797.75;689949;28;22414;-67
2021/11/04 00:30:07;;;;;;;1012.28;945.08;;;;;;;9.20;67.22;99788.00;689111;28;23450;-67
2021/11/04 00:30:30;;;;;;;1013.35;946.03;;;;;;;9.20;67.23;99793.41;687270;28;92303;-67
2021/11/04 00:30:51;;;;;;;1014.60;947.20;;;;;;;9.20;67.21;99790.72;687868;28;69380;-67
2021/11/04 00:31:12;;;;;;;1018.00;950.45;;;;;;;9.21;67.33;99786.97;688888;28;22400;-67
2021/11/04 00:31:34;;;;;;;1017.33;949.92;;;;;;;9.20;67.55;99791.53;689856;28;22397;-67
2021/11/04 00:31:56;;;;;;;975.95;910.08;;;;;;;9.20;67.45;99788.84;688902;28;21578;-67
2021/11/04 00:32:18;;;;;;;956.22;891.03;;;;;;;9.20;67.48;99785.31;687638;28;68416;-67
2021/11/04 00:32:44;;;;;;;959.60;894.28;;;;;;;9.20;67.32;99782.63;688677;28;46305;-67
2021/11/04 00:33:06;;;;;;;952.03;886.95;;;;;;;9.20;67.62;99782.63;685818;28;136623;-67
2021/11/04 00:33:27;;;;;;;969.00;903.30;;;;;;;9.20;67.35;99782.63;687953;28;46432;-67
2021/11/04 00:33:51;;;;;;;961.97;896.60;;;;;;;9.19;67.33;99775.56;688577;28;44135;-67
2021/11/04 00:34:12;;;;;;;981.22;915.25;;;;;;;9.20;67.28;99771.84;687454;28;90438;-67
2021/11/04 00:34:34;;;;;;;987.60;921.40;;;;;;;9.20;67.41;99775.38;690218;28;16629;-67
2021/11/04 00:34:56;;;;;;;1006.75;939.75;;;;;;;9.20;67.38;99772.66;689178;28;47584;-67
2021/11/04 00:35:17;;;;;;;1023.92;956.13;;;;;;;9.20;67.44;99775.38;688142;28;19828;-67
2021/11/04 00:35:40;;;;;;;1029.97;962.00;;;;;;;9.20;67.36;99769.97;688674;28;46386;-67
2021/11/04 00:36:01;;;;;;;1015.63;948.28;;;;;;;9.23;67.72;99771.44;688054;28;45359;-67
2021/11/04 00:36:22;;;;;;;1019.40;951.80;;;;;;;9.24;67.31;99769.59;690383;28;1672;-67
2021/11/04 00:36:44;;;;;;;1037.30;969.03;;;;;;;9.23;67.43;99766.03;689715;28;20539;-67
2021/11/04 00:37:06;;;;;;;1039.35;970.97;;;;;;;9.23;67.48;99760.66;689067;28;33894;-67
2021/11/04 00:37:27;;;;;;;1036.50;968.33;;;;;;;9.22;67.53;99760.88;689263;28;18187;-67
2021/11/04 00:37:49;;;;;;;1031.28;963.17;;;;;;;9.22;67.23;99767.09;688761;28;19235;-67
2021/11/04 00:38:11;;;;;;;1034.05;965.97;;;;;;;9.21;67.30;99762.72;689082;28;35242;-67
2021/11/04 00:38:32;;;;;;;1036.15;968.03;;;;;;;9.22;67.31;99763.56;688385;28;44370;-67
2021/11/04 00:38:53;;;;;;;1037.82;969.60;;;;;;;9.19;67.56;99765.59;689200;28;22369;-67
2021/11/04 00:39:15;;;;;;;1027.10;959.33;;;;;;;9.18;67.47;99761.25;689606;28;24143;-67
2021/11/04 00:39:36;;;;;;;1032.07;964.10;;;;;;;9.17;67.57;99766.84;689160;28;45892;-67
2021/11/04 00:39:58;;;;;;;1015.65;948.30;;;;;;;9.15;67.30;99763.50;690344;28;23175;-67
2021/11/04 00:40:21;;;;;;;1019.08;951.58;;;;;;;9.15;67.34;99764.34;687753;28;46386;-67
2021/11/04 00:40:42;;;;;;;1001.33;934.47;;;;;;;9.15;67.64;99760.78;686076;28;67478;-67
2021/11/04 00:41:03;;;;;;;960.47;895.13;;;;;;;9.13;67.36;99766.38;687689;28;22840;-67
2021/11/04 00:41:25;;;;;;;964.78;899.20;;;;;;;9.13;67.70;99762.84;689047;28;1494;-67
2021/11/04 00:41:47;;;;;;;957.15;891.92;;;;;;;9.12;67.76;99766.56;687777;28;44508;-67
2021/11/04 00:42:08;;;;;;;938.65;874.05;;;;;;;9.11;67.41;99773.00;688845;28;44387;-67
2021/11/04 00:42:29;;;;;;;930.75;866.28;;;;;;;9.10;67.72;99768.63;689175;28;22404;-67
2021/11/04 00:42:51;;;;;;;944.70;879.80;;;;;;;9.10;67.58;99768.63;689836;28;22272;-67
2021/11/04 00:43:12;;;;;;;958.42;893.10;;;;;;;9.10;67.86;99772.13;688308;28;46565;-67
2021/11/04 00:43:33;;;;;;;961.28;895.97;;;;;;;9.12;67.81;99771.94;689190;28;21602;-67
2021/11/04 00:43:56;;;;;;;972.33;906.65;;;;;;;9.11;67.86;99763.03;688359;28;22376;-67
2021/11/04 00:44:18;;;;;;;944.15;879.40;;;;;;;9.12;67.84;99769.25;687885;28;69416;-67
2021/11/04 00:44:40;;;;;;;959.42;894.10;;;;;;;9.11;67.57;99764.91;689419;28;24172;-67
2021/11/04 00:45:01;;;;;;;963.20;897.67;;;;;;;9.11;67.79;99764.91;687706;28;44394;-67
2021/11/04 00:45:22;;;;;;;940.17;875.28;;;;;;;9.10;67.82;99758.66;690312;28;1603;-67
2021/11/04 00:45:44;;;;;;;944.28;879.30;;;;;;;9.09;67.63;99765.09;688738;28;45708;-67
2021/11/04 00:46:05;;;;;;;945.40;880.40;;;;;;;9.11;67.69;99765.75;688463;28;46331;-67
2021/11/04 00:46:26;;;;;;;948.42;883.35;;;;;;;9.11;67.67;99763.03;689565;28;22410;-68
2021/11/04 00:46:48;;;;;;;945.85;880.90;;;;;;;9.11;67.59;99757.66;689705;28;22439;-67
2021/11/04 00:47:10;;;;;;;941.35;876.55;;;;;;;9.12;67.56;99759.34;688928;28;22381;-67
2021/11/04 00:47:32;;;;;;;945.45;880.55;;;;;;;9.11;67.53;99765.75;688702;28;44376;-67
2021/11/04 00:47:54;;;;;;;933.80;869.20;;;;;;;9.10;67.63;99757.84;687709;28;69488;-67
2021/11/04 00:48:16;;;;;;;944.10;879.20;;;;;;;9.09;67.57;99756.16;689743;28;22387;-67
2021/11/04 00:48:37;;;;;;;955.05;889.78;;;;;;;9.07;67.58;99761.75;688500;28;46310;-67
2021/11/04 00:48:58;;;;;;;961.05;895.55;;;;;;;9.07;67.81;99760.94;688480;28;44039;-67
2021/11/04 00:49:20;;;;;;;957.80;892.40;;;;;;;9.06;67.80;99754.72;689257;28;22406;-67
2021/11/04 00:49:42;;;;;;;967.97;902.20;;;;;;;9.06;67.57;99757.41;688903;28;46294;-67
2021/11/04 00:50:04;;;;;;;960.20;894.70;;;;;;;9.05;67.59;99755.72;688938;28;21521;-67
2021/11/04 00:50:26;;;;;;;974.33;908.33;;;;;;;9.06;67.87;99753.84;688416;28;46258;-67
2021/11/04 00:50:48;;;;;;;954.92;889.67;;;;;;;9.06;67.70;99751.16;688099;28;46272;-67
2021/11/04 00:51:09;;;;;;;958.15;892.90;;;;;;;9.05;67.79;99754.91;688501;28;46308;-67
2021/11/04 00:51:30;;;;;;;974.92;909.13;;;;;;;9.04;67.88;99751.34;687209;28;42691;-67
2021/11/04 00:51:53;;;;;;;965.67;900.08;;;;;;;9.05;67.68;99749.50;688513;28;22551;-67
2021/11/04 00:52:15;;;;;;;976.38;910.40;;;;;;;9.04;67.97;99747.84;687225;28;69357;-67
2021/11/04 00:52:36;;;;;;;1005.28;938.17;;;;;;;9.03;67.70;99749.72;688746;28;46325;-67
2021/11/04 00:52:57;;;;;;;997.47;930.72;;;;;;;9.02;67.99;99740.78;688840;28;22175;-67
2021/11/04 00:53:18;;;;;;;1005.35;938.35;;;;;;;9.03;67.82;99749.72;688970;28;22186;-67
2021/11/04 00:53:40;;;;;;;990.65;924.25;;;;;;;9.04;67.74;99748.66;689330;28;22395;-67
2021/11/04 00:54:02;;;;;;;950.60;885.67;;;;;;;9.04;67.81;99740.59;687792;28;44141;-67
2021/11/04 00:54:23;;;;;;;965.03;899.47;;;;;;;9.04;67.99;99750.53;688843;28;44352;-67
2021/11/04 00:54:45;;;;;;;949.03;884.03;;;;;;;9.02;67.88;99746.16;689711;28;23448;-67
2021/11/04 00:55:07;;;;;;;954.45;889.25;;;;;;;9.03;67.94;99741.63;687602;28;46316;-67
2021/11/04 00:55:28;;;;;;;948.35;883.33;;;;;;;9.02;67.89;99745.34;688221;28;46439;-67
2021/11/04 00:55:51;;;;;;;953.17;888.03;;;;;;;9.03;67.85;99744.31;689612;28;22413;-67
2021/11/04 00:56:12;;;;;;;970.03;904.25;;;;;;;9.02;67.89;99751.53;687373;28;89008;-67
2021/11/04 00:56:33;;;;;;;966.78;901.17;;;;;;;9.05;67.73;99741.44;689373;28;23665;-67
2021/11/04 00:56:54;;;;;;;977.65;911.65;;;;;;;9.05;68.09;99747.66;689281;28;21142;-67
2021/11/04 00:57:17;;;;;;;984.15;917.83;;;;;;;9.05;67.97;99741.44;688578;28;22381;-67
2021/11/04 00:57:39;;;;;;;1000.50;933.47;;;;;;;9.06;67.84;99740.38;688244;28;46387;-67
2021/11/04 00:58:00;;;;;;;1014.78;947.15;;;;;;;9.07;67.70;99750.16;688761;28;47288;-67
2021/11/04 00:58:21;;;;;;;1007.17;939.95;;;;;;;9.05;67.91;99738.75;689646;28;22624;-67
2021/11/04 00:58:44;;;;;;;1016.30;948.67;;;;;;;9.06;67.94;99748.47;688348;28;44367;-67
2021/11/04 00:59:05;;;;;;;1020.10;952.40;;;;;;;9.05;67.72;99744.13;687733;28;46546;-67
2021/11/04 00:59:26;;;;;;;1010.92;943.60;;;;;;;9.05;67.95;99753.03;689706;28;22415;-67
2021/11/04 00:59:48;;;;;;;993.45;926.83;;;;;;;9.07;67.71;99745.59;689823;28;21685;-67
2021/11/04 01:00:12;;;;;;;1017.70;950.17;;;;;;;9.08;67.97;99747.25;686941;28;69446;-67
2021/11/04 01:00:33;;;;;;;1018.78;951.25;;;;;;;9.08;67.67;99743.75;687635;28;69423;-67
2021/11/04 01:00:55;;;;;;;1016.22;948.83;;;;;;;9.10;67.64;99744.38;689422;28;22411;-67
2021/11/04 01:01:17;;;;;;;1020.47;952.72;;;;;;;9.10;67.77;99745.19;687003;28;69269;-67
2021/11/04 01:01:38;;;;;;;1019.95;952.33;;;;;;;9.07;67.56;99740.19;689602;28;22465;-67
2021/11/04 01:01:59;;;;;;;1022.05;954.42;;;;;;;9.10;67.58;99736.31;689825;28;22420;-67
2021/11/04 01:02:20;;;;;;;1004.05;937.08;;;;;;;9.11;67.59;99740.66;689093;28;23466;-67
2021/11/04 01:02:43;;;;;;;1008.67;941.65;;;;;;;9.12;67.64;99736.94;689828;28;23408;-67
2021/11/04 01:03:04;;;;;;;1012.95;945.60;;;;;;;9.12;67.54;99740.47;686640;28;92174;-67
2021/11/04 01:03:26;;;;;;;1016.17;948.88;;;;;;;9.12;67.47;99742.31;689796;28;22387;-67
2021/11/04 01:03:48;;;;;;;1016.75;949.40;;;;;;;9.11;67.41;99737.97;689082;28;45271;-68
2021/11/04 01:04:10;;;;;;;1022.08;954.45;;;;;;;9.09;67.48;99738.16;688352;28;45244;-67
2021/11/04 01:04:31;;;;;;;1023.95;956.30;;;;;;;9.08;67.35;99738.34;688448;28;46406;-67
2021/11/04 01:04:52;;;;;;;1018.35;950.83;;;;;;;9.07;67.35;99739.38;687827;28;21259;-67
2021/11/04 01:05:13;;;;;;;1012.90;945.50;;;;;;;9.05;67.45;99739.56;687444;28;22377;-67
2021/11/04 01:05:36;;;;;;;1011.25;943.97;;;;;;;9.04;67.37;99739.75;686977;28;45261;-67
2021/11/04 01:05:57;;;;;;;1012.65;945.40;;;;;;;9.01;67.48;99736.44;686454;28;46558;-67
2021/11/04 01:06:20;;;;;;;1016.17;948.78;;;;;;;9.00;67.54;99737.44;688453;28;21541;-67
2021/11/04 01:06:41;;;;;;;1016.70;949.20;;;;;;;8.99;67.81;99732.25;687011;28;68956;-67
2021/11/04 01:07:03;;;;;;;1019.92;952.40;;;;;;;8.97;67.80;99737.81;689764;28;21522;-67
2021/11/04 01:07:24;;;;;;;1016.35;948.92;;;;;;;8.97;67.71;99729.75;690008;28;1797;-67
2021/11/04 01:07:46;;;;;;;1014.65;947.10;;;;;;;8.96;67.96;99738.00;689090;28;23823;-67
2021/11/04 01:08:07;;;;;;;1010.40;942.97;;;;;;;8.95;67.63;99730.94;688128;28;45254;-67
2021/11/04 01:08:29;;;;;;;1006.22;939.15;;;;;;;8.94;67.87;99732.00;689117;28;22395;-67
2021/11/04 01:08:51;;;;;;;1015.85;948.42;;;;;;;8.91;67.80;99732.38;688512;28;43849;-67
2021/11/04 01:09:12;;;;;;;1013.42;946.08;;;;;;;8.90;68.04;99728.00;688673;28;44334;-67
2021/11/04 01:09:33;;;;;;;1013.30;946.00;;;;;;;8.88;67.75;99732.75;689617;28;23438;-67
2021/11/04 01:09:55;;;;;;;1017.92;950.42;;;;;;;8.85;67.83;99728.56;688135;28;20781;-67
2021/11/04 01:10:16;;;;;;;1007.65;940.55;;;;;;;8.83;67.90;99725.25;686567;28;46670;-67
2021/11/04 01:10:37;;;;;;;1013.05;945.72;;;;;;;8.82;68.06;99729.81;687701;28;23494;-67
2021/11/04 01:10:59;;;;;;;1017.33;949.80;;;;;;;8.80;68.20;99725.63;685749;28;4148;-67
2021/11/04 01:11:23;;;;;;;1014.10;946.67;;;;;;;8.80;68.10;99726.44;685013;28;44431;-67
2021/11/04 01:11:44;;;;;;;1008.22;940.72;;;;;;;8.80;68.31;99736.41;686557;28;41882;-67
2021/11/04 01:12:06;;;;;;;1006.60;939.55;;;;;;;8.80;68.18;99731.84;691112;28;22206;-66
2021/11/04 01:12:28;;;;;;;1018.53;951.03;;;;;;;8.77;68.45;99723.31;689836;28;46292;-66
2021/11/04 01:12:51;;;;;;;1013.38;945.88;;;;;;;8.80;68.27;99739.91;688663;28;43605;-66
2021/11/04 01:13:13;;;;;;;1019.08;951.33;;;;;;;8.79;68.35;99732.03;688178;28;75224;-66
2021/11/04 01:13:34;;;;;;;1018.72;950.78;;;;;;;8.74;68.31;99723.69;690552;28;23317;-66
2021/11/04 01:13:57;;;;;;;1021.50;953.53;;;;;;;8.79;68.50;99742.78;688871;28;46236;-66
2021/11/04 01:14:18;;;;;;;1009.78;942.47;;;;;;;8.80;68.40;99741.78;690147;28;41680;-66
2021/11/04 01:14:40;;;;;;;1013.17;945.78;;;;;;;8.80;68.46;99744.47;688069;28;22025;-66
2021/11/04 01:15:01;;;;;;;1017.03;949.58;;;;;;;8.80;68.45;99749.88;686702;28;46343;-66
2021/11/04 01:15:23;;;;;;;1013.35;946.00;;;;;;;8.78;68.64;99746.53;688098;28;44399;-66
2021/11/04 01:15:44;;;;;;;1006.17;938.97;;;;;;;8.78;68.60;99755.44;687624;28;46573;-66
2021/11/04 01:16:06;;;;;;;1015.38;947.95;;;;;;;8.77;68.49;99751.06;688584;28;22104;-66
2021/11/04 01:16:28;;;;;;;1022.08;954.33;;;;;;;8.79;68.58;99750.88;689468;28;22411;-66
2021/11/04 01:16:50;;;;;;;1019.78;952.13;;;;;;;8.79;68.34;99754.44;687670;28;67496;-66
2021/11/04 01:17:12;;;;;;;1017.42;949.90;;;;;;;8.78;68.65;99751.91;688310;28;44387;-66
2021/11/04 01:17:33;;;;;;;1031.70;963.53;;;;;;;8.77;68.38;99753.75;689560;28;23656;-66
2021/11/04 01:17:55;;;;;;;1037.20;968.70;;;;;;;8.75;68.63;99747.75;688388;28;46598;-66
2021/11/04 01:18:18;;;;;;;1042.18;973.63;;;;;;;8.76;68.59;99760.19;688114;28;46273;-66
2021/11/04 01:18:39;;;;;;;1038.95;970.60;;;;;;;8.75;68.39;99755.00;688965;28;46400;-66
2021/11/04 01:19:00;;;;;;;1040.97;972.53;;;;;;;8.74;68.68;99756.81;688391;28;46383;-66
2021/11/04 01:19:21;;;;;;;1048.13;979.38;;;;;;;8.75;68.46;99755.00;689680;28;22386;-66
2021/11/04 01:19:43;;;;;;;1040.55;972.10;;;;;;;8.76;68.42;99757.50;689822;28;23448;-66
2021/11/04 01:20:06;;;;;;;1030.40;962.28;;;;;;;8.74;68.47;99759.53;690132;28;43203;-66
2021/11/04 01:20:27;;;;;;;1039.50;971.00;;;;;;;8.76;68.57;99764.72;691181;28;46690;-66
2021/11/04 01:20:49;;;;;;;1050.22;981.35;;;;;;;8.76;68.71;99757.50;687781;28;44861;-66
2021/11/04 01:21:12;;;;;;;1037.72;969.40;;;;;;;8.77;68.71;99763.69;687458;28;44420;-66
2021/11/04 01:21:33;;;;;;;1034.00;965.72;;;;;;;8.76;68.44;99770.94;687171;28;70168;-66
2021/11/04 01:21:55;;;;;;;1035.50;967.25;;;;;;;8.76;68.62;99767.41;689500;28;21692;-66
2021/11/04 01:22:17;;;;;;;1029.53;961.63;;;;;;;8.76;68.61;99770.94;687542;28;45190;-67
2021/11/04 01:22:38;;;;;;;1033.07;964.97;;;;;;;8.76;68.46;99770.94;685723;28;46409;-67
2021/11/04 01:23:00;;;;;;;1025.18;957.45;;;;;;;8.76;68.49;99765.56;689768;28;22399;-67
2021/11/04 01:23:21;;;;;;;1011.25;943.97;;;;;;;8.75;68.58;99773.84;688486;28;45217;-66
2021/11/04 01:23:44;;;;;;;1007.45;940.22;;;;;;;8.74;68.61;99769.47;689497;28;22383;-66
2021/11/04 01:24:06;;;;;;;1012.33;944.83;;;;;;;8.74;68.40;99772.16;686982;28;69232;-66
2021/11/04 01:24:27;;;;;;;1018.70;950.92;;;;;;;8.72;68.60;99772.34;688539;28;46698;-66
2021/11/04 01:24:48;;;;;;;1021.03;953.30;;;;;;;8.72;68.69;99777.72;689746;28;22250;-66
2021/11/04 01:25:11;;;;;;;1033.50;965.38;;;;;;;8.71;68.70;99778.75;689073;28;22388;-66
2021/11/04 01:25:32;;;;;;;1040.25;971.75;;;;;;;8.69;68.53;99774.59;687686;28;67505;-67
2021/11/04 01:25:53;;;;;;;1041.07;972.55;;;;;;;8.69;68.68;99775.41;689090;28;22386;-67
2021/11/04 01:26:14;;;;;;;1036.50;968.17;;;;;;;8.70;68.91;99771.72;689374;28;23398;-67
2021/11/04 01:26:36;;;;;;;1007.33;940.03;;;;;;;8.69;68.57;99777.28;689820;28;23501;-67
2021/11/04 01:26:57;;;;;;;1003.17;936.17;;;;;;;8.66;68.85;99771.22;689042;28;45264;-67
2021/11/04 01:27:18;;;;;;;1010.58;943.28;;;;;;;8.67;68.69;99769.41;688458;28;45467;-67
2021/11/04 01:27:39;;;;;;;1004.17;937.00;;;;;;;8.69;68.87;99771.91;688712;28;22402;-67
2021/11/04 01:28:03;;;;;;;1008.22;940.83;;;;;;;8.67;68.95;99769.41;689566;28;22514;-67
2021/11/04 01:28:25;;;;;;;1011.05;943.67;;;;;;;8.65;68.99;99760.66;688844;28;36500;-67
2021/11/04 01:28:46;;;;;;;973.20;907.20;;;;;;;8.64;68.80;99757.13;689795;28;22398;-67
2021/11/04 01:29:07;;;;;;;941.97;877.08;;;;;;;8.65;68.79;99758.81;689565;28;23440;-67
2021/11/04 01:29:30;;;;;;;942.47;877.58;;;;;;;8.67;68.78;99753.25;689731;28;1930;-67
2021/11/04 01:29:51;;;;;;;955.05;889.65;;;;;;;8.67;68.91;99755.94;688842;28;44448;-67
2021/11/04 01:30:13;;;;;;;970.53;904.53;;;;;;;8.67;68.82;99755.94;688251;28;44386;-67
2021/11/04 01:30:34;;;;;;;947.83;882.72;;;;;;;8.68;68.76;99756.75;689375;28;24027;-67
2021/11/04 01:30:56;;;;;;;947.90;882.80;;;;;;;8.68;68.97;99749.50;687659;28;43231;-67
2021/11/04 01:31:17;;;;;;;951.55;886.35;;;;;;;8.68;68.83;99757.59;687628;28;46651;-67
2021/11/04 01:31:38;;;;;;;948.42;883.30;;;;;;;8.68;68.90;99754.88;689533;28;22154;-67
2021/11/04 01:32:00;;;;;;;961.50;895.83;;;;;;;8.66;68.72;99749.69;689322;28;23535;-67
2021/11/04 01:32:22;;;;;;;952.65;887.33;;;;;;;8.68;69.10;99743.28;688374;28;46676;-66
2021/11/04 01:32:43;;;;;;;951.10;885.90;;;;;;;8.69;69.05;99747.66;688876;28;22141;-66
2021/11/04 01:33:06;;;;;;;954.47;889.22;;;;;;;8.69;68.78;99747.66;689521;28;22442;-66
2021/11/04 01:33:28;;;;;;;960.08;894.63;;;;;;;8.69;68.86;99743.09;687964;28;67447;-66
2021/11/04 01:33:49;;;;;;;968.47;902.70;;;;;;;8.69;68.92;99739.59;688830;28;46308;-66
2021/11/04 01:34:10;;;;;;;981.53;915.22;;;;;;;8.69;68.87;99743.09;688604;28;22363;-66
2021/11/04 01:34:32;;;;;;;1005.08;937.97;;;;;;;8.68;68.99;99744.13;689066;28;22411;-67
2021/11/04 01:34:53;;;;;;;1006.67;939.47;;;;;;;8.65;68.91;99739.13;687299;28;69417;-67
2021/11/04 01:35:14;;;;;;;1012.28;944.88;;;;;;;8.67;68.78;99737.09;688400;28;21613;-67
2021/11/04 01:35:36;;;;;;;1013.35;945.92;;;;;;;8.66;69.14;99738.94;688642;28;22414;-67
2021/11/04 01:35:58;;;;;;;1013.50;946.05;;;;;;;8.66;68.79;99741.63;687968;28;46550;-67
2021/11/04 01:36:19;;;;;;;1015.00;947.53;;;;;;;8.62;69.08;99734.09;688279;28;44909;-67
2021/11/04 01:36:40;;;;;;;1020.58;952.92;;;;;;;8.64;69.05;99732.91;689623;28;23460;-67
2021/11/04 01:37:01;;;;;;;1014.92;947.53;;;;;;;8.63;69.04;99735.78;688727;28;22399;-67
2021/11/04 01:37:23;;;;;;;1018.35;950.72;;;;;;;8.63;69.04;99733.09;688932;28;22411;-67
2021/11/04 01:37:45;;;;;;;1034.13;965.80;;;;;;;8.61;68.86;99729.78;687377;28;46297;-67
2021/11/04 01:38:06;;;;;;;1049.45;980.60;;;;;;;8.59;68.85;99732.66;689221;28;22392;-67
2021/11/04 01:38:27;;;;;;;1042.05;973.60;;;;;;;8.60;69.02;99728.09;688684;28;44373;-67
2021/11/04 01:38:49;;;;;;;1021.60;953.88;;;;;;;8.61;69.14;99729.78;689744;28;22403;-67